createdAt,value
2023-01-29T00:00:00.973Z,0.090
2023-01-29T00:01:00.746Z,0.090
2023-01-29T00:02:00.841Z,0.090
2023-01-29T00:03:00.839Z,0.090
2023-01-29T00:04:00.767Z,0.090
2023-01-29T00:05:13.054Z,0.135
2023-01-29T00:06:00.879Z,0.135
2023-01-29T00:07:00.766Z,0.090
2023-01-29T00:08:00.871Z,0.090
2023-01-29T00:09:00.725Z,0.090
2023-01-29T00:10:00.771Z,0.090
2023-01-29T00:11:00.725Z,0.090
2023-01-29T00:12:00.840Z,0.090
2023-01-29T00:13:00.740Z,0.090
2023-01-29T00:14:00.733Z,0.090
2023-01-29T00:15:00.752Z,0.090
2023-01-29T00:16:00.763Z,0.090
2023-01-29T00:17:00.865Z,0.090
2023-01-29T00:18:00.850Z,0.090
2023-01-29T00:19:00.853Z,0.090
2023-01-29T00:20:00.795Z,0.090
2023-01-29T00:21:00.763Z,0.090
2023-01-29T00:22:00.743Z,0.090
2023-01-29T00:23:00.883Z,0.090
2023-01-29T00:24:00.798Z,0.090
2023-01-29T00:25:00.900Z,0.090
2023-01-29T00:26:00.753Z,0.090
2023-01-29T00:27:00.760Z,0.090
2023-01-29T00:28:00.723Z,0.090
2023-01-29T00:29:00.774Z,0.090
2023-01-29T00:30:00.797Z,0.090
2023-01-29T00:31:00.964Z,0.090
2023-01-29T00:32:01.015Z,0.090
2023-01-29T00:33:00.793Z,0.090
2023-01-29T00:34:00.766Z,0.090
2023-01-29T00:35:00.745Z,0.090
2023-01-29T00:36:00.765Z,0.090
2023-01-29T00:37:00.887Z,0.090
2023-01-29T00:38:00.848Z,0.090
2023-01-29T00:39:00.976Z,0.090
2023-01-29T00:40:00.724Z,0.090
2023-01-29T00:41:00.722Z,0.090
2023-01-29T00:42:00.751Z,0.090
2023-01-29T00:43:00.853Z,0.090
2023-01-29T00:44:00.722Z,0.090
2023-01-29T00:45:00.967Z,0.090
2023-01-29T00:46:00.748Z,0.090
2023-01-29T00:47:00.752Z,0.090
2023-01-29T00:48:00.756Z,0.090
2023-01-29T00:49:00.968Z,0.090
2023-01-29T00:50:00.728Z,0.090
2023-01-29T00:51:00.893Z,0.090
2023-01-29T00:52:00.726Z,0.090
2023-01-29T00:53:00.742Z,0.090
2023-01-29T00:54:00.905Z,0.090
2023-01-29T00:55:00.800Z,0.090
2023-01-29T00:56:00.720Z,0.090
2023-01-29T00:57:00.842Z,0.090
2023-01-29T00:58:00.759Z,0.090
2023-01-29T00:59:00.742Z,0.090
2023-01-29T01:00:00.757Z,0.090
2023-01-29T01:01:00.737Z,0.090
2023-01-29T01:02:00.957Z,0.090
2023-01-29T01:03:00.759Z,0.090
2023-01-29T01:04:00.741Z,0.090
2023-01-29T01:05:00.823Z,0.090
2023-01-29T01:06:00.762Z,0.090
2023-01-29T01:07:00.734Z,0.090
2023-01-29T01:08:00.771Z,0.090
2023-01-29T01:09:00.814Z,0.090
2023-01-29T01:10:00.752Z,0.090
2023-01-29T01:11:00.777Z,0.090
2023-01-29T01:12:00.873Z,0.090
2023-01-29T01:13:00.763Z,0.090
2023-01-29T01:14:00.783Z,0.090
2023-01-29T01:15:00.749Z,0.090
2023-01-29T01:16:00.990Z,0.090
2023-01-29T01:17:00.814Z,0.090
2023-01-29T01:18:00.963Z,0.090
2023-01-29T01:19:00.855Z,0.090
2023-01-29T01:20:00.747Z,0.090
2023-01-29T01:21:00.785Z,0.090
2023-01-29T01:22:00.795Z,0.090
2023-01-29T01:23:00.767Z,0.090
2023-01-29T01:24:00.875Z,0.090
2023-01-29T01:25:00.833Z,0.090
2023-01-29T01:26:00.724Z,0.090
2023-01-29T01:27:00.750Z,0.090
2023-01-29T01:28:00.806Z,0.090
2023-01-29T01:29:01.013Z,0.090
2023-01-29T01:30:00.957Z,0.090
2023-01-29T01:31:00.883Z,0.090
2023-01-29T01:32:00.781Z,0.090
2023-01-29T01:33:00.725Z,0.090
2023-01-29T01:34:00.779Z,0.090
2023-01-29T01:35:00.775Z,0.090
2023-01-29T01:36:00.881Z,0.090
2023-01-29T01:37:00.811Z,0.090
2023-01-29T01:38:00.736Z,0.090
2023-01-29T01:39:00.724Z,0.090
2023-01-29T01:40:00.737Z,0.090
2023-01-29T01:41:00.853Z,0.090
2023-01-29T01:42:00.766Z,0.090
2023-01-29T01:43:00.798Z,0.090
2023-01-29T01:44:00.837Z,0.090
2023-01-29T01:45:00.840Z,0.090
2023-01-29T01:46:00.845Z,0.135
2023-01-29T01:47:00.796Z,0.135
2023-01-29T01:48:00.745Z,0.090
2023-01-29T01:49:00.752Z,0.090
2023-01-29T01:50:00.748Z,0.090
2023-01-29T01:51:00.806Z,0.090
2023-01-29T01:52:00.876Z,0.135
2023-01-29T01:53:00.726Z,0.135
2023-01-29T01:54:00.748Z,0.135
2023-01-29T01:55:00.790Z,0.135
2023-01-29T01:56:00.761Z,0.135
2023-01-29T01:57:00.837Z,0.135
2023-01-29T01:58:00.914Z,0.135
2023-01-29T01:59:00.832Z,0.135
2023-01-29T02:00:00.812Z,0.135
2023-01-29T02:01:00.861Z,0.135
2023-01-29T02:02:00.852Z,0.135
2023-01-29T02:03:00.896Z,0.135
2023-01-29T02:04:00.827Z,0.135
2023-01-29T02:05:00.777Z,0.135
2023-01-29T02:06:00.747Z,0.135
2023-01-29T02:07:00.734Z,0.135
2023-01-29T02:08:00.776Z,0.135
2023-01-29T02:09:00.910Z,0.135
2023-01-29T02:10:00.764Z,0.135
2023-01-29T02:11:00.739Z,0.135
2023-01-29T02:12:00.880Z,0.090
2023-01-29T02:13:00.728Z,0.090
2023-01-29T02:14:00.883Z,0.090
2023-01-29T02:15:00.739Z,0.090
2023-01-29T02:16:00.741Z,0.090
2023-01-29T02:17:00.718Z,0.090
2023-01-29T02:18:00.732Z,0.090
2023-01-29T02:19:00.738Z,0.090
2023-01-29T02:20:00.886Z,0.090
2023-01-29T02:21:00.754Z,0.090
2023-01-29T02:22:00.750Z,0.090
2023-01-29T02:23:02.604Z,0.090
2023-01-29T02:24:00.928Z,0.090
2023-01-29T02:25:00.746Z,0.090
2023-01-29T02:26:00.881Z,0.090
2023-01-29T02:27:00.895Z,0.090
2023-01-29T02:28:00.747Z,0.090
2023-01-29T02:29:00.734Z,0.090
2023-01-29T02:30:00.739Z,0.090
2023-01-29T02:31:00.849Z,0.090
2023-01-29T02:32:00.987Z,0.090
2023-01-29T02:33:00.726Z,0.090
2023-01-29T02:34:00.757Z,0.090
2023-01-29T02:35:00.736Z,0.090
2023-01-29T02:36:00.782Z,0.090
2023-01-29T02:37:00.793Z,0.090
2023-01-29T02:38:00.991Z,0.090
2023-01-29T02:39:00.768Z,0.090
2023-01-29T02:40:00.739Z,0.090
2023-01-29T02:41:00.852Z,0.090
2023-01-29T02:42:00.925Z,0.090
2023-01-29T02:43:00.750Z,0.090
2023-01-29T02:44:00.839Z,0.090
2023-01-29T02:45:00.789Z,0.090
2023-01-29T02:46:00.950Z,0.090
2023-01-29T02:47:00.830Z,0.090
2023-01-29T02:48:00.798Z,0.090
2023-01-29T02:49:00.806Z,0.090
2023-01-29T02:50:00.843Z,0.090
2023-01-29T02:51:00.721Z,0.090
2023-01-29T02:52:00.756Z,0.090
2023-01-29T02:53:00.752Z,0.090
2023-01-29T02:54:00.769Z,0.090
2023-01-29T02:55:00.719Z,0.090
2023-01-29T02:56:00.859Z,0.090
2023-01-29T02:57:00.911Z,0.090
2023-01-29T02:58:00.734Z,0.090
2023-01-29T02:59:00.748Z,0.090
2023-01-29T03:00:00.739Z,0.090
2023-01-29T03:01:00.759Z,0.090
2023-01-29T03:02:00.981Z,0.090
2023-01-29T03:03:00.748Z,0.090
2023-01-29T03:04:00.747Z,0.090
2023-01-29T03:05:00.758Z,0.090
2023-01-29T03:06:00.809Z,0.090
2023-01-29T03:07:00.734Z,0.090
2023-01-29T03:08:00.840Z,0.090
2023-01-29T03:09:00.718Z,0.090
2023-01-29T03:10:00.790Z,0.090
2023-01-29T03:11:00.749Z,0.090
2023-01-29T03:12:00.835Z,0.090
2023-01-29T03:13:00.730Z,0.090
2023-01-29T03:14:00.717Z,0.090
2023-01-29T03:15:00.724Z,0.090
2023-01-29T03:16:01.767Z,0.090
2023-01-29T03:17:00.718Z,0.090
2023-01-29T03:18:00.743Z,0.135
2023-01-29T03:19:00.756Z,0.180
2023-01-29T03:20:00.881Z,0.180
2023-01-29T03:21:00.857Z,0.135
2023-01-29T03:22:00.927Z,0.135
2023-01-29T03:23:00.761Z,0.135
2023-01-29T03:24:00.727Z,0.135
2023-01-29T03:25:00.822Z,0.135
2023-01-29T03:26:00.762Z,0.135
2023-01-29T03:27:00.736Z,0.135
2023-01-29T03:28:01.891Z,0.135
2023-01-29T03:29:00.834Z,0.135
2023-01-29T03:30:00.747Z,0.135
2023-01-29T03:31:00.909Z,0.135
2023-01-29T03:32:00.894Z,0.135
2023-01-29T03:33:00.776Z,0.135
2023-01-29T03:34:00.925Z,0.135
2023-01-29T03:35:00.916Z,0.135
2023-01-29T03:36:00.771Z,0.135
2023-01-29T03:37:00.739Z,0.180
2023-01-29T03:38:00.765Z,0.135
2023-01-29T03:39:00.833Z,0.135
2023-01-29T03:40:00.887Z,0.135
2023-01-29T03:41:00.749Z,0.180
2023-01-29T03:42:00.744Z,0.180
2023-01-29T03:43:00.746Z,0.180
2023-01-29T03:44:00.756Z,0.180
2023-01-29T03:45:00.755Z,0.225
2023-01-29T03:46:00.984Z,0.225
2023-01-29T03:47:00.771Z,0.270
2023-01-29T03:48:00.750Z,0.270
2023-01-29T03:49:00.767Z,0.360
2023-01-29T03:50:00.785Z,0.405
2023-01-29T03:51:00.784Z,0.450
2023-01-29T03:52:00.853Z,0.540
2023-01-29T03:53:00.727Z,0.675
2023-01-29T03:54:00.728Z,0.765
2023-01-29T03:55:00.864Z,0.945
2023-01-29T03:56:00.738Z,1.170
2023-01-29T03:57:00.736Z,1.440
2023-01-29T03:58:00.767Z,1.755
2023-01-29T03:59:00.765Z,2.115
2023-01-29T04:00:00.747Z,2.565
2023-01-29T04:01:01.042Z,3.060
2023-01-29T04:02:00.872Z,3.465
2023-01-29T04:03:00.740Z,4.005
2023-01-29T04:04:00.825Z,4.590
2023-01-29T04:05:00.798Z,5.130
2023-01-29T04:06:00.963Z,5.940
2023-01-29T04:07:00.807Z,7.065
2023-01-29T04:08:00.912Z,8.460
2023-01-29T04:09:00.748Z,9.990
2023-01-29T04:10:00.760Z,11.430
2023-01-29T04:11:00.807Z,12.870
2023-01-29T04:12:00.847Z,13.950
2023-01-29T04:13:00.783Z,14.850
2023-01-29T04:14:00.880Z,15.750
2023-01-29T04:15:00.819Z,17.010
2023-01-29T04:16:00.734Z,18.810
2023-01-29T04:17:00.830Z,21.240
2023-01-29T04:18:00.839Z,24.300
2023-01-29T04:19:00.871Z,27.360
2023-01-29T04:20:00.952Z,30.240
2023-01-29T04:21:00.819Z,32.580
2023-01-29T04:22:00.757Z,33.840
2023-01-29T04:23:00.718Z,33.300
2023-01-29T04:24:00.759Z,32.580
2023-01-29T04:25:00.795Z,33.300
2023-01-29T04:26:00.810Z,34.920
2023-01-29T04:27:00.761Z,36.360
2023-01-29T04:28:00.722Z,36.720
2023-01-29T04:29:00.770Z,35.640
2023-01-29T04:30:00.750Z,32.760
2023-01-29T04:31:00.856Z,30.420
2023-01-29T04:32:00.863Z,30.060
2023-01-29T04:33:00.751Z,31.680
2023-01-29T04:34:00.743Z,37.080
2023-01-29T04:35:00.766Z,45.720
2023-01-29T04:36:00.926Z,51.840
2023-01-29T04:37:00.759Z,52.200
2023-01-29T04:38:00.906Z,48.960
2023-01-29T04:39:00.732Z,47.520
2023-01-29T04:40:00.748Z,49.680
2023-01-29T04:41:00.791Z,54.720
2023-01-29T04:42:00.754Z,61.920
2023-01-29T04:43:00.764Z,68.040
2023-01-29T04:44:00.790Z,73.800
2023-01-29T04:45:00.722Z,79.920
2023-01-29T04:46:00.760Z,84.600
2023-01-29T04:47:00.765Z,87.840
2023-01-29T04:48:00.765Z,87.480
2023-01-29T04:49:00.754Z,86.400
2023-01-29T04:50:00.876Z,87.840
2023-01-29T04:51:00.978Z,92.160
2023-01-29T04:52:00.810Z,97.200
2023-01-29T04:53:00.761Z,100.800
2023-01-29T04:54:00.770Z,102.960
2023-01-29T04:55:00.794Z,105.840
2023-01-29T04:56:00.873Z,111.600
2023-01-29T04:57:00.750Z,125.280
2023-01-29T04:58:00.807Z,142.560
2023-01-29T04:59:00.764Z,151.200
2023-01-29T05:00:00.810Z,139.680
2023-01-29T05:01:00.777Z,132.480
2023-01-29T05:02:01.073Z,144.000
2023-01-29T05:03:00.802Z,159.840
2023-01-29T05:04:00.761Z,159.120
2023-01-29T05:05:00.731Z,153.360
2023-01-29T05:06:00.826Z,157.680
2023-01-29T05:07:00.719Z,161.280
2023-01-29T05:08:00.819Z,163.440
2023-01-29T05:09:00.760Z,158.400
2023-01-29T05:10:00.737Z,156.960
2023-01-29T05:11:00.723Z,164.880
2023-01-29T05:12:00.730Z,178.560
2023-01-29T05:13:00.771Z,179.280
2023-01-29T05:14:00.886Z,184.320
2023-01-29T05:15:00.804Z,191.520
2023-01-29T05:16:00.766Z,188.640
2023-01-29T05:17:00.726Z,203.040
2023-01-29T05:18:00.738Z,218.880
2023-01-29T05:19:00.721Z,228.960
2023-01-29T05:20:00.842Z,236.160
2023-01-29T05:21:00.910Z,237.600
2023-01-29T05:22:00.719Z,234.720
2023-01-29T05:23:00.823Z,231.840
2023-01-29T05:24:00.798Z,234.720
2023-01-29T05:25:00.779Z,239.040
2023-01-29T05:26:00.843Z,244.800
2023-01-29T05:27:00.753Z,254.880
2023-01-29T05:28:00.772Z,270.720
2023-01-29T05:29:00.744Z,279.360
2023-01-29T05:30:00.855Z,276.480
2023-01-29T05:31:00.921Z,266.400
2023-01-29T05:32:00.909Z,252.000
2023-01-29T05:33:00.810Z,244.800
2023-01-29T05:34:00.825Z,244.800
2023-01-29T05:35:00.728Z,252.000
2023-01-29T05:36:00.801Z,262.080
2023-01-29T05:37:00.774Z,266.400
2023-01-29T05:38:00.893Z,259.200
2023-01-29T05:39:00.792Z,252.000
2023-01-29T05:40:00.884Z,254.880
2023-01-29T05:41:00.764Z,264.960
2023-01-29T05:42:00.921Z,280.800
2023-01-29T05:43:00.774Z,295.200
2023-01-29T05:44:00.875Z,306.720
2023-01-29T05:45:00.912Z,324.000
2023-01-29T05:46:00.898Z,338.400
2023-01-29T05:47:00.769Z,347.040
2023-01-29T05:48:00.730Z,352.800
2023-01-29T05:49:00.836Z,357.120
2023-01-29T05:50:01.157Z,355.680
2023-01-29T05:51:00.747Z,348.480
2023-01-29T05:52:00.804Z,344.160
2023-01-29T05:53:00.767Z,345.600
2023-01-29T05:54:00.749Z,349.920
2023-01-29T05:55:00.807Z,345.600
2023-01-29T05:56:00.847Z,334.080
2023-01-29T05:57:00.747Z,326.880
2023-01-29T05:58:00.786Z,326.880
2023-01-29T05:59:00.736Z,332.640
2023-01-29T06:00:00.764Z,335.520
2023-01-29T06:01:00.852Z,341.280
2023-01-29T06:02:00.958Z,352.800
2023-01-29T06:03:00.853Z,367.200
2023-01-29T06:04:00.815Z,388.800
2023-01-29T06:05:00.729Z,420.480
2023-01-29T06:06:00.744Z,443.520
2023-01-29T06:07:00.756Z,455.040
2023-01-29T06:08:00.870Z,457.920
2023-01-29T06:09:00.742Z,472.320
2023-01-29T06:10:00.765Z,495.360
2023-01-29T06:11:00.782Z,521.280
2023-01-29T06:12:00.730Z,552.960
2023-01-29T06:13:00.750Z,567.360
2023-01-29T06:14:00.838Z,564.480
2023-01-29T06:15:00.735Z,555.840
2023-01-29T06:16:00.834Z,547.200
2023-01-29T06:17:00.851Z,538.560
2023-01-29T06:18:00.817Z,524.160
2023-01-29T06:19:00.825Z,515.520
2023-01-29T06:20:00.927Z,506.880
2023-01-29T06:21:00.724Z,492.480
2023-01-29T06:22:00.762Z,472.320
2023-01-29T06:23:00.943Z,432.000
2023-01-29T06:24:00.857Z,377.280
2023-01-29T06:25:00.818Z,345.600
2023-01-29T06:26:00.803Z,357.120
2023-01-29T06:27:00.765Z,397.440
2023-01-29T06:28:00.778Z,437.760
2023-01-29T06:29:00.816Z,446.400
2023-01-29T06:30:00.739Z,420.480
2023-01-29T06:31:11.424Z,394.560
2023-01-29T06:32:00.997Z,388.800
2023-01-29T06:33:00.740Z,394.560
2023-01-29T06:34:00.752Z,408.960
2023-01-29T06:35:00.947Z,434.880
2023-01-29T06:36:00.781Z,457.920
2023-01-29T06:37:00.738Z,472.320
2023-01-29T06:38:00.727Z,486.720
2023-01-29T06:39:00.725Z,504.000
2023-01-29T06:40:00.765Z,524.160
2023-01-29T06:41:00.925Z,538.560
2023-01-29T06:42:00.791Z,555.840
2023-01-29T06:43:00.765Z,581.760
2023-01-29T06:44:00.810Z,627.840
2023-01-29T06:45:00.760Z,679.680
2023-01-29T06:46:00.903Z,734.400
2023-01-29T06:47:00.905Z,766.080
2023-01-29T06:48:01.668Z,777.600
2023-01-29T06:49:00.776Z,771.840
2023-01-29T06:50:00.732Z,760.320
2023-01-29T06:51:00.725Z,754.560
2023-01-29T06:52:00.729Z,771.840
2023-01-29T06:53:00.837Z,789.120
2023-01-29T06:54:00.841Z,812.160
2023-01-29T06:55:00.890Z,835.200
2023-01-29T06:56:00.793Z,829.440
2023-01-29T06:57:00.851Z,806.400
2023-01-29T06:58:00.813Z,812.160
2023-01-29T06:59:00.954Z,829.440
2023-01-29T07:00:00.791Z,840.960
2023-01-29T07:01:00.758Z,852.480
2023-01-29T07:02:00.877Z,869.760
2023-01-29T07:03:00.892Z,904.320
2023-01-29T07:04:00.855Z,938.880
2023-01-29T07:05:01.000Z,967.680
2023-01-29T07:06:00.784Z,984.960
2023-01-29T07:07:00.792Z,1002.240
2023-01-29T07:08:00.909Z,1071.360
2023-01-29T07:09:00.933Z,1111.680
2023-01-29T07:10:00.775Z,1198.080
2023-01-29T07:11:00.879Z,1342.080
2023-01-29T07:12:00.750Z,1497.600
2023-01-29T07:13:00.727Z,1670.400
2023-01-29T07:14:00.775Z,1797.120
2023-01-29T07:15:00.823Z,1831.680
2023-01-29T07:16:00.933Z,1797.120
2023-01-29T07:17:00.899Z,1728.000
2023-01-29T07:18:00.783Z,1624.320
2023-01-29T07:19:00.793Z,1509.120
2023-01-29T07:20:00.764Z,1428.480
2023-01-29T07:21:00.748Z,1428.480
2023-01-29T07:22:00.895Z,1486.080
2023-01-29T07:23:00.849Z,1555.200
2023-01-29T07:24:00.815Z,1601.280
2023-01-29T07:25:00.856Z,1589.760
2023-01-29T07:26:00.746Z,1543.680
2023-01-29T07:27:00.744Z,1486.080
2023-01-29T07:28:01.095Z,1463.040
2023-01-29T07:29:00.933Z,1474.560
2023-01-29T07:30:00.760Z,1532.160
2023-01-29T07:31:00.787Z,1612.800
2023-01-29T07:32:00.872Z,1681.920
2023-01-29T07:33:00.808Z,1739.520
2023-01-29T07:34:00.776Z,1831.680
2023-01-29T07:35:01.385Z,1981.440
2023-01-29T07:36:00.733Z,2142.720
2023-01-29T07:37:00.776Z,2234.880
2023-01-29T07:38:00.777Z,2223.360
2023-01-29T07:39:00.779Z,2142.720
2023-01-29T07:40:00.832Z,2004.480
2023-01-29T07:41:02.878Z,1854.720
2023-01-29T07:42:00.767Z,1762.560
2023-01-29T07:43:00.843Z,1728.000
2023-01-29T07:44:01.147Z,1728.000
2023-01-29T07:45:00.757Z,1797.120
2023-01-29T07:46:01.265Z,1889.280
2023-01-29T07:47:00.908Z,2016.000
2023-01-29T07:48:00.810Z,2119.680
2023-01-29T07:49:00.791Z,2142.720
2023-01-29T07:50:01.007Z,2108.160
2023-01-29T07:51:01.118Z,2050.560
2023-01-29T07:52:00.787Z,1992.960
2023-01-29T07:53:00.855Z,1969.920
2023-01-29T07:54:00.808Z,1969.920
2023-01-29T07:55:00.938Z,2004.480
2023-01-29T07:56:01.071Z,2027.520
2023-01-29T07:57:00.750Z,2039.040
2023-01-29T07:58:00.737Z,2004.480
2023-01-29T07:59:00.829Z,1958.400
2023-01-29T08:00:00.787Z,1900.800
2023-01-29T08:01:00.773Z,1831.680
2023-01-29T08:02:00.953Z,1774.080
2023-01-29T08:03:00.838Z,1751.040
2023-01-29T08:04:00.843Z,1739.520
2023-01-29T08:05:01.038Z,1762.560
2023-01-29T08:06:00.750Z,1785.600
2023-01-29T08:07:00.812Z,1820.160
2023-01-29T08:08:06.972Z,1854.720
2023-01-29T08:09:00.798Z,1900.800
2023-01-29T08:10:00.779Z,1958.400
2023-01-29T08:11:00.855Z,2027.520
2023-01-29T08:12:00.810Z,2085.120
2023-01-29T08:13:00.726Z,2177.280
2023-01-29T08:14:00.740Z,2280.960
2023-01-29T08:15:00.767Z,2373.120
2023-01-29T08:16:00.742Z,2430.720
2023-01-29T08:17:00.891Z,2476.800
2023-01-29T08:18:00.773Z,2534.400
2023-01-29T08:19:00.755Z,2580.480
2023-01-29T08:20:00.788Z,2638.080
2023-01-29T08:21:00.798Z,2707.200
2023-01-29T08:22:00.813Z,2787.840
2023-01-29T08:23:00.932Z,2856.960
2023-01-29T08:25:08.191Z,2926.080
2023-01-29T08:26:01.122Z,2891.520
2023-01-29T08:27:00.800Z,2787.840
2023-01-29T08:28:00.953Z,2661.120
2023-01-29T08:29:00.944Z,2534.400
2023-01-29T08:30:00.794Z,2453.760
2023-01-29T08:31:00.920Z,2442.240
2023-01-29T08:32:00.866Z,2499.840
2023-01-29T08:33:00.871Z,2580.480
2023-01-29T08:34:00.757Z,2649.600
2023-01-29T08:35:00.780Z,2707.200
2023-01-29T08:36:00.822Z,2753.280
2023-01-29T08:37:00.932Z,2764.800
2023-01-29T08:38:00.791Z,2730.240
2023-01-29T08:39:00.772Z,2638.080
2023-01-29T08:40:00.766Z,2603.520
2023-01-29T08:41:00.791Z,2568.960
2023-01-29T08:42:00.786Z,2568.960
2023-01-29T08:43:02.283Z,2615.040
2023-01-29T08:44:00.765Z,2603.520
2023-01-29T08:45:00.735Z,2568.960
2023-01-29T08:46:00.879Z,2534.400
2023-01-29T08:47:00.784Z,2511.360
2023-01-29T08:48:00.767Z,2453.760
2023-01-29T08:49:00.940Z,2465.280
2023-01-29T08:50:00.769Z,2511.360
2023-01-29T08:51:00.758Z,2522.880
2023-01-29T08:52:02.994Z,2488.320
2023-01-29T08:53:00.757Z,2488.320
2023-01-29T08:54:00.807Z,2522.880
2023-01-29T08:55:00.904Z,2695.680
2023-01-29T08:56:00.862Z,2914.560
2023-01-29T08:57:00.788Z,2995.200
2023-01-29T08:58:00.937Z,3041.280
2023-01-29T08:59:01.030Z,3179.520
2023-01-29T09:00:01.159Z,3479.040
2023-01-29T09:01:00.785Z,3663.360
2023-01-29T09:02:00.823Z,3617.280
2023-01-29T09:03:00.771Z,3363.840
2023-01-29T09:04:00.805Z,3041.280
2023-01-29T09:05:00.765Z,2672.640
2023-01-29T09:06:00.759Z,2453.760
2023-01-29T09:07:00.734Z,2350.080
2023-01-29T09:08:01.021Z,2350.080
2023-01-29T09:09:00.723Z,2407.680
2023-01-29T09:10:00.825Z,2407.680
2023-01-29T09:11:01.046Z,2361.600
2023-01-29T09:12:01.109Z,2292.480
2023-01-29T09:13:00.857Z,2234.880
2023-01-29T09:14:00.815Z,2177.280
2023-01-29T09:15:00.854Z,2131.200
2023-01-29T09:16:01.148Z,2096.640
2023-01-29T09:17:00.950Z,2108.160
2023-01-29T09:18:01.064Z,2165.760
2023-01-29T09:19:01.158Z,2257.920
2023-01-29T09:20:01.454Z,2338.560
2023-01-29T09:21:01.038Z,2338.560
2023-01-29T09:22:01.163Z,2280.960
2023-01-29T09:23:01.126Z,2234.880
2023-01-29T09:24:01.194Z,2257.920
2023-01-29T09:25:01.206Z,2315.520
2023-01-29T09:26:00.982Z,2373.120
2023-01-29T09:27:00.862Z,2419.200
2023-01-29T09:28:01.348Z,2453.760
2023-01-29T09:29:00.879Z,2453.760
2023-01-29T09:30:00.892Z,2430.720
2023-01-29T09:31:01.236Z,2384.640
2023-01-29T09:32:01.255Z,2304.000
2023-01-29T09:33:01.005Z,2200.320
2023-01-29T09:34:01.113Z,2062.080
2023-01-29T09:35:00.768Z,1923.840
2023-01-29T09:36:00.731Z,1797.120
2023-01-29T09:37:00.903Z,1681.920
2023-01-29T09:38:00.724Z,1624.320
2023-01-29T09:39:00.733Z,1532.160
2023-01-29T09:40:00.781Z,1428.480
2023-01-29T09:41:00.924Z,1307.520
2023-01-29T09:42:00.751Z,1169.280
2023-01-29T09:43:01.021Z,1140.480
2023-01-29T09:44:00.731Z,1048.320
2023-01-29T09:45:00.779Z,961.920
2023-01-29T09:46:00.786Z,927.360
2023-01-29T09:47:00.852Z,910.080
2023-01-29T09:48:00.779Z,881.280
2023-01-29T09:49:01.100Z,869.760
2023-01-29T09:50:00.750Z,642.240
2023-01-29T09:51:00.783Z,550.080
2023-01-29T09:52:00.848Z,515.520
2023-01-29T09:53:00.782Z,486.720
2023-01-29T09:54:00.719Z,472.320
2023-01-29T09:55:00.759Z,466.560
2023-01-29T09:56:00.787Z,463.680
2023-01-29T09:57:00.836Z,463.680
2023-01-29T09:58:00.942Z,480.960
2023-01-29T09:59:01.993Z,489.600
2023-01-29T10:00:00.721Z,489.600
2023-01-29T10:01:00.751Z,495.360
2023-01-29T10:02:00.961Z,506.880
2023-01-29T10:03:00.735Z,518.400
2023-01-29T10:04:00.938Z,538.560
2023-01-29T10:05:00.749Z,541.440
2023-01-29T10:06:00.733Z,541.440
2023-01-29T10:07:00.744Z,555.840
2023-01-29T10:08:00.756Z,581.760
2023-01-29T10:09:00.767Z,601.920
2023-01-29T10:10:00.816Z,622.080
2023-01-29T10:11:00.758Z,645.120
2023-01-29T10:12:00.766Z,653.760
2023-01-29T10:13:00.848Z,656.640
2023-01-29T10:14:00.989Z,656.640
2023-01-29T10:15:00.787Z,676.800
2023-01-29T10:16:00.847Z,659.520
2023-01-29T10:17:00.814Z,648.000
2023-01-29T10:18:00.800Z,639.360
2023-01-29T10:19:00.936Z,633.600
2023-01-29T10:20:00.965Z,668.160
2023-01-29T10:21:00.851Z,685.440
2023-01-29T10:22:00.885Z,685.440
2023-01-29T10:23:00.927Z,702.720
2023-01-29T10:24:00.825Z,708.480
2023-01-29T10:25:00.738Z,696.960
2023-01-29T10:26:00.738Z,705.600
2023-01-29T10:27:00.765Z,717.120
2023-01-29T10:28:00.797Z,705.600
2023-01-29T10:29:01.019Z,705.600
2023-01-29T10:30:00.831Z,717.120
2023-01-29T10:31:00.971Z,720.000
2023-01-29T10:32:00.915Z,696.960
2023-01-29T10:33:00.793Z,636.480
2023-01-29T10:34:02.756Z,604.800
2023-01-29T10:35:00.847Z,584.640
2023-01-29T10:36:00.756Z,573.120
2023-01-29T10:37:00.723Z,547.200
2023-01-29T10:38:00.724Z,512.640
2023-01-29T10:39:00.777Z,483.840
2023-01-29T10:40:00.867Z,466.560
2023-01-29T10:41:00.802Z,466.560
2023-01-29T10:42:00.734Z,455.040
2023-01-29T10:43:00.769Z,434.880
2023-01-29T10:44:00.762Z,417.600
2023-01-29T10:45:00.868Z,388.800
2023-01-29T10:46:00.723Z,385.920
2023-01-29T10:47:00.773Z,380.160
2023-01-29T10:48:00.720Z,397.440
2023-01-29T10:49:00.785Z,420.480
2023-01-29T10:50:00.801Z,426.240
2023-01-29T10:51:00.940Z,417.600
2023-01-29T10:52:00.724Z,391.680
2023-01-29T10:53:00.780Z,388.800
2023-01-29T10:54:00.735Z,397.440
2023-01-29T10:55:00.722Z,432.000
2023-01-29T10:56:02.503Z,443.520
2023-01-29T10:57:00.954Z,455.040
2023-01-29T10:58:02.884Z,463.680
2023-01-29T10:59:00.747Z,469.440
2023-01-29T11:00:00.725Z,472.320
2023-01-29T11:01:00.843Z,472.320
2023-01-29T11:02:00.896Z,478.080
2023-01-29T11:03:00.909Z,478.080
2023-01-29T11:04:00.763Z,472.320
2023-01-29T11:05:00.818Z,469.440
2023-01-29T11:06:00.790Z,478.080
2023-01-29T11:07:00.766Z,495.360
2023-01-29T11:08:00.766Z,498.240
2023-01-29T11:09:00.883Z,515.520
2023-01-29T11:10:00.796Z,521.280
2023-01-29T11:11:00.863Z,532.800
2023-01-29T11:12:00.989Z,538.560
2023-01-29T11:13:00.975Z,538.560
2023-01-29T11:14:00.865Z,529.920
2023-01-29T11:15:01.110Z,538.560
2023-01-29T11:16:00.847Z,567.360
2023-01-29T11:17:01.082Z,590.400
2023-01-29T11:18:00.930Z,581.760
2023-01-29T11:19:00.817Z,584.640
2023-01-29T11:20:00.891Z,584.640
2023-01-29T11:21:00.937Z,578.880
2023-01-29T11:22:00.850Z,570.240
2023-01-29T11:23:01.046Z,567.360
2023-01-29T11:24:00.854Z,570.240
2023-01-29T11:25:00.745Z,558.720
2023-01-29T11:26:00.794Z,570.240
2023-01-29T11:27:00.904Z,587.520
2023-01-29T11:28:00.840Z,587.520
2023-01-29T11:29:00.741Z,590.400
2023-01-29T11:30:00.767Z,599.040
2023-01-29T11:31:00.990Z,604.800
2023-01-29T11:32:00.772Z,613.440
2023-01-29T11:33:00.816Z,607.680
2023-01-29T11:34:00.728Z,610.560
2023-01-29T11:35:00.838Z,613.440
2023-01-29T11:36:00.818Z,587.520
2023-01-29T11:37:00.782Z,564.480
2023-01-29T11:38:00.819Z,564.480
2023-01-29T11:39:00.900Z,552.960
2023-01-29T11:40:00.747Z,555.840
2023-01-29T11:41:00.821Z,547.200
2023-01-29T11:42:01.021Z,550.080
2023-01-29T11:43:00.750Z,541.440
2023-01-29T11:44:00.783Z,550.080
2023-01-29T11:45:00.943Z,561.600
2023-01-29T11:46:00.852Z,561.600
2023-01-29T11:47:00.863Z,555.840
2023-01-29T11:48:00.794Z,547.200
2023-01-29T11:49:09.920Z,535.680
2023-01-29T11:50:00.804Z,524.160
2023-01-29T11:51:00.904Z,515.520
2023-01-29T11:52:00.758Z,509.760
2023-01-29T11:53:00.744Z,498.240
2023-01-29T11:54:00.813Z,489.600
2023-01-29T11:55:00.775Z,483.840
2023-01-29T11:56:00.769Z,472.320
2023-01-29T11:57:00.873Z,466.560
2023-01-29T11:58:00.842Z,460.800
2023-01-29T11:59:00.797Z,452.160
2023-01-29T12:00:00.724Z,434.880
2023-01-29T12:01:00.970Z,423.360
2023-01-29T12:02:00.821Z,406.080
2023-01-29T12:03:00.917Z,397.440
2023-01-29T12:04:00.863Z,400.320
2023-01-29T12:05:00.787Z,394.560
2023-01-29T12:06:00.901Z,380.160
2023-01-29T12:07:00.790Z,368.640
2023-01-29T12:08:00.732Z,362.880
2023-01-29T12:09:00.982Z,352.800
2023-01-29T12:10:00.975Z,338.400
2023-01-29T12:11:00.812Z,326.880
2023-01-29T12:12:01.152Z,319.680
2023-01-29T12:13:00.849Z,313.920
2023-01-29T12:14:00.797Z,308.160
2023-01-29T12:15:00.996Z,296.640
2023-01-29T12:16:00.902Z,290.880
2023-01-29T12:17:00.912Z,293.760
2023-01-29T12:18:00.957Z,300.960